Private Wetterstation Sandau
Wetterdaten: Woche 11.03.13 - 17.03.13 (KW11)
Datum Zeit Temp. A. Feuchte A. Luftdruck Regen Wind Richtung Taupunkt Windchill
11.03.2013 00:00 -5,5 C 85 % 1006,5 hPa 0,0 l/m 4,7 km/h (1 Bft) NO -7,6 C -7,1 C
11.03.2013 01:00 -5,4 C 85 % 1006,9 hPa 0,0 l/m 6,0 km/h (2 Bft) O-NO -7,6 C -7,8 C
11.03.2013 02:00 -4,9 C 84 % 1006,9 hPa 0,0 l/m 4,8 km/h (1 Bft) NO -7,2 C -6,2 C
11.03.2013 03:00 -4,8 C 83 % 1006,8 hPa 0,0 l/m 4,7 km/h (1 Bft) NO -7,2 C -6,3 C
11.03.2013 04:00 -4,8 C 83 % 1006,8 hPa 0,0 l/m 3,5 km/h (1 Bft) NO -7,2 C -5,2 C
11.03.2013 05:00 -4,9 C 84 % 1006,9 hPa 0,0 l/m 4,3 km/h (1 Bft) O-NO -7,2 C -6,3 C
11.03.2013 06:00 -5,0 C 82 % 1007,1 hPa 0,0 l/m 6,5 km/h (2 Bft) NO -7,6 C -7,6 C
11.03.2013 07:00 -5,0 C 82 % 1007,7 hPa 0,0 l/m 4,6 km/h (1 Bft) NO -7,7 C -6,3 C
11.03.2013 08:00 -4,4 C 79 % 1008,1 hPa 0,0 l/m 7,5 km/h (2 Bft) O-NO -7,4 C -7,6 C
11.03.2013 09:00 -3,1 C 75 % 1008,3 hPa 0,0 l/m 7,0 km/h (2 Bft) O-NO -6,9 C -5,7 C
11.03.2013 10:00 -1,4 C 68 % 1008,4 hPa 0,0 l/m 5,9 km/h (2 Bft) O-NO -6,5 C -3,0 C
11.03.2013 11:00 -0,5 C 64 % 1008,5 hPa 0,0 l/m 5,9 km/h (2 Bft) O-NO -6,4 C -2,5 C
11.03.2013 12:00 -0,1 C 62 % 1008,6 hPa 0,5 l/m 8,5 km/h (2 Bft) NO -6,5 C -2,9 C
11.03.2013 13:00 0,6 C 58 % 1008,4 hPa 0,0 l/m 7,6 km/h (2 Bft) NO -6,8 C -1,7 C
11.03.2013 14:00 0,3 C 58 % 1008,5 hPa 0,0 l/m 8,8 km/h (2 Bft) O-NO -6,9 C -2,4 C
11.03.2013 15:00 -0,7 C 62 % 1008,6 hPa 0,0 l/m 8,3 km/h (2 Bft) NO -7,0 C -3,5 C
11.03.2013 16:00 -1,0 C 64 % 1008,6 hPa 0,0 l/m 7,5 km/h (2 Bft) O-NO -6,9 C -3,4 C
11.03.2013 17:00 -1,7 C 66 % 1008,6 hPa 0,0 l/m 4,7 km/h (1 Bft) O-NO -7,2 C -3,0 C
11.03.2013 18:00 -2,4 C 70 % 1008,9 hPa 0,0 l/m 3,5 km/h (1 Bft) O-NO -7,1 C -3,0 C
11.03.2013 19:00 -2,7 C 76 % 1009,2 hPa 0,0 l/m 1,6 km/h (1 Bft) O-NO -6,3 C -2,8 C
11.03.2013 20:00 -2,8 C 81 % 1009,4 hPa 0,0 l/m 3,4 km/h (1 Bft) O-NO -5,7 C -3,5 C
11.03.2013 21:00 -3,1 C 83 % 1009,6 hPa 0,0 l/m 1,8 km/h (1 Bft) O-NO -5,6 C -3,2 C
11.03.2013 22:00 -3,4 C 85 % 1009,4 hPa 0,0 l/m 2,4 km/h (1 Bft) O-NO -5,7 C -3,9 C
11.03.2013 23:00 -3,7 C 85 % 1009,4 hPa 0,0 l/m 5,9 km/h (2 Bft) O-NO -5,8 C -5,8 C
12.03.2013 00:00 -3,8 C 85 % 1009,4 hPa 0,0 l/m 5,4 km/h (1 Bft) NO -5,9 C -5,3 C
12.03.2013 01:00 -3,9 C 85 % 1009,4 hPa 0,0 l/m 4,0 km/h (1 Bft) NO -6,0 C -4,7 C
12.03.2013 02:00 -4,0 C 85 % 1009,2 hPa 0,0 l/m 3,8 km/h (1 Bft) O-NO -6,1 C -4,8 C
12.03.2013 03:00 -4,2 C 85 % 1008,8 hPa 0,0 l/m 3,9 km/h (1 Bft) O-NO -6,3 C -5,3 C
12.03.2013 04:00 -4,4 C 86 % 1008,6 hPa 0,0 l/m 3,1 km/h (1 Bft) O-NO -6,3 C -4,9 C
12.03.2013 05:00 -4,5 C 86 % 1008,4 hPa 0,0 l/m 5,0 km/h (1 Bft) O-NO -6,5 C -6,0 C
12.03.2013 06:00 -4,7 C 87 % 1008,3 hPa 0,0 l/m 3,2 km/h (1 Bft) NO -6,5 C -5,4 C
12.03.2013 07:00 -4,5 C 86 % 1008,2 hPa 0,0 l/m 4,7 km/h (1 Bft) O-NO -6,5 C -5,6 C
12.03.2013 08:00 -3,3 C 81 % 1008,4 hPa 0,0 l/m 5,0 km/h (1 Bft) NO -6,0 C -4,9 C
12.03.2013 09:00 -2,5 C 77 % 1008,3 hPa 0,0 l/m 3,8 km/h (1 Bft) O-NO -5,9 C -3,0 C
12.03.2013 10:00 -1,3 C 73 % 1007,9 hPa 0,0 l/m 6,4 km/h (2 Bft) NO -5,5 C -3,6 C
12.03.2013 11:00 -0,4 C 70 % 1007,9 hPa 0,0 l/m 7,0 km/h (2 Bft) O-NO -5,3 C -2,6 C
12.03.2013 12:00 0,5 C 64 % 1007,3 hPa 0,0 l/m 7,3 km/h (2 Bft) O-NO -5,4 C -1,5 C
12.03.2013 13:00 1,7 C 58 % 1006,9 hPa 0,0 l/m 5,7 km/h (1 Bft) O-NO -5,8 C 0,5 C
12.03.2013 14:00 1,2 C 58 % 1006,5 hPa 0,5 l/m 5,6 km/h (1 Bft) NO -6,1 C -0,0 C
12.03.2013 15:00 1,2 C 60 % 1006,3 hPa 0,0 l/m 4,2 km/h (1 Bft) O-NO -5,6 C 0,4 C
12.03.2013 16:00 -0,1 C 62 % 1005,9 hPa 0,0 l/m 5,3 km/h (1 Bft) O-NO -6,4 C -1,4 C
12.03.2013 17:00 -1,2 C 65 % 1005,8 hPa 0,0 l/m 3,9 km/h (1 Bft) O-NO -6,9 C -2,1 C
12.03.2013 18:00 -2,0 C 68 % 1005,8 hPa 0,0 l/m 2,0 km/h (1 Bft) O-NO -7,2 C -2,2 C
12.03.2013 19:00 -2,5 C 69 % 1005,8 hPa 0,0 l/m 1,7 km/h (1 Bft) NO -7,4 C -2,7 C
12.03.2013 20:00 -2,9 C 71 % 1005,8 hPa 0,0 l/m 3,7 km/h (1 Bft) O-NO -7,4 C -3,7 C
12.03.2013 21:00 -3,8 C 72 % 1005,7 hPa 0,0 l/m 4,0 km/h (1 Bft) NO -8,1 C -4,6 C
12.03.2013 22:00 -4,6 C 73 % 1005,7 hPa 0,0 l/m 2,8 km/h (1 Bft) O-NO -8,6 C -5,1 C
12.03.2013 23:00 -5,4 C 75 % 1005,7 hPa 0,0 l/m 0,4 km/h (0 Bft) NO -9,1 C -5,4 C
13.03.2013 00:00 -6,2 C 76 % 1005,6 hPa 0,0 l/m 0,1 km/h (0 Bft) N-NO -9,7 C -6,2 C
13.03.2013 01:00 -7,1 C 78 % 1005,4 hPa 0,0 l/m 0,0 km/h (0 Bft) N -10,3 C -7,1 C
13.03.2013 02:00 -7,9 C 80 % 1005,3 hPa 0,0 l/m 0,1 km/h (0 Bft) N-NO -10,8 C -7,9 C
13.03.2013 03:00 -8,4 C 82 % 1005,3 hPa 0,0 l/m 1,7 km/h (1 Bft) N-NO -11,0 C -8,7 C
13.03.2013 04:00 -8,9 C 82 % 1005,2 hPa 0,0 l/m 0,0 km/h (0 Bft) N -11,4 C -8,9 C
13.03.2013 05:00 -9,6 C 82 % 1005,1 hPa 0,0 l/m 0,0 km/h (0 Bft) N -12,0 C -9,6 C
13.03.2013 06:00 -9,8 C 83 % 1005,2 hPa 0,0 l/m 0,0 km/h (0 Bft) N -12,1 C -9,8 C
13.03.2013 07:00 -8,9 C 86 % 1005,5 hPa 0,0 l/m 0,0 km/h (0 Bft) N -10,8 C -8,9 C
13.03.2013 08:00 -7,0 C 86 % 1005,7 hPa 0,0 l/m 0,2 km/h (0 Bft) N-NW -8,9 C -7,0 C
13.03.2013 09:00 -4,9 C 82 % 1005,9 hPa 0,0 l/m 1,1 km/h (1 Bft) W-NW -7,6 C -4,9 C
13.03.2013 10:00 -2,9 C 76 % 1006,2 hPa 0,0 l/m 1,8 km/h (1 Bft) W-NW -6,5 C -2,9 C
13.03.2013 11:00 -1,2 C 69 % 1006,3 hPa 0,0 l/m 2,5 km/h (1 Bft) W -6,1 C -1,4 C
13.03.2013 12:00 0,3 C 62 % 1006,3 hPa 0,0 l/m 4,2 km/h (1 Bft) W-SW -6,2 C -0,6 C
13.03.2013 13:00 2,0 C 55 % 1006,2 hPa 0,0 l/m 3,3 km/h (1 Bft) W-SW -6,0 C 1,6 C
13.03.2013 14:00 3,1 C 51 % 1006,2 hPa 0,0 l/m 2,7 km/h (1 Bft) W-NW -6,0 C 2,7 C
13.03.2013 15:00 3,2 C 49 % 1006,1 hPa 0,0 l/m 3,7 km/h (1 Bft) W-SW -6,4 C 2,8 C
13.03.2013 16:00 2,2 C 49 % 1006,2 hPa 0,0 l/m 2,6 km/h (1 Bft) W-SW -7,4 C 1,9 C
13.03.2013 17:00 -0,2 C 53 % 1006,4 hPa 0,0 l/m 1,2 km/h (1 Bft) W-SW -8,7 C -0,2 C
13.03.2013 18:00 -2,4 C 57 % 1007,0 hPa 0,0 l/m 0,2 km/h (0 Bft) S-SO -9,7 C -2,4 C
13.03.2013 19:00 -4,3 C 63 % 1007,5 hPa 0,0 l/m 1,2 km/h (1 Bft) S -10,3 C -4,3 C
13.03.2013 20:00 -5,1 C 68 % 1007,7 hPa 0,0 l/m 1,0 km/h (0 Bft) S-SW -10,1 C -5,1 C
13.03.2013 21:00 -6,0 C 72 % 1008,0 hPa 0,0 l/m 0,6 km/h (0 Bft) S-SO -10,2 C -6,0 C
13.03.2013 22:00 -6,7 C 75 % 1008,1 hPa 0,0 l/m 0,1 km/h (0 Bft) N -10,4 C -6,7 C
13.03.2013 23:00 -7,0 C 78 % 1008,2 hPa 0,0 l/m 0,3 km/h (0 Bft) S-SO -10,2 C -7,0 C
14.03.2013 00:00 -7,6 C 80 % 1008,4 hPa 0,0 l/m 1,0 km/h (0 Bft) SO -10,5 C -7,6 C
14.03.2013 01:00 -7,0 C 82 % 1008,7 hPa 0,0 l/m 1,8 km/h (1 Bft) S-SO -9,5 C -7,0 C
14.03.2013 02:00 -6,3 C 82 % 1008,7 hPa 0,0 l/m 1,9 km/h (1 Bft) S -8,9 C -6,3 C
14.03.2013 03:00 -5,9 C 83 % 1008,6 hPa 0,0 l/m 0,5 km/h (0 Bft) S -8,4 C -5,9 C
14.03.2013 04:00 -5,8 C 83 % 1008,5 hPa 0,0 l/m 1,0 km/h (0 Bft) SO -8,2 C -5,8 C
14.03.2013 05:00 -5,6 C 84 % 1008,5 hPa 0,0 l/m 1,7 km/h (1 Bft) SO -7,9 C -5,6 C
14.03.2013 06:00 -5,2 C 84 % 1008,7 hPa 0,0 l/m 0,6 km/h (0 Bft) S-SO -7,5 C -5,2 C
14.03.2013 07:00 -4,2 C 84 % 1009,3 hPa 0,0 l/m 1,0 km/h (0 Bft) O-SO -6,5 C -4,2 C
14.03.2013 08:00 -3,3 C 83 % 1009,8 hPa 0,0 l/m 1,2 km/h (1 Bft) O-SO -5,8 C -3,5 C
14.03.2013 09:00 -1,3 C 80 % 1010,1 hPa 0,0 l/m 0,8 km/h (0 Bft) O-SO -4,3 C -1,3 C
14.03.2013 10:00 -0,7 C 78 % 1010,7 hPa 0,0 l/m 1,9 km/h (1 Bft) O-SO -4,1 C -0,7 C
14.03.2013 11:00 1,4 C 74 % 1010,9 hPa 0,0 l/m 1,2 km/h (1 Bft) W-NW -2,7 C 1,4 C
14.03.2013 12:00 2,7 C 70 % 1010,9 hPa 0,0 l/m 2,4 km/h (1 Bft) W-NW -2,3 C 2,6 C
14.03.2013 13:00 3,2 C 68 % 1010,8 hPa 0,0 l/m 3,1 km/h (1 Bft) W-NW -2,1 C 2,7 C
14.03.2013 14:00 3,1 C 67 % 1010,6 hPa 0,0 l/m 2,2 km/h (1 Bft) O-SO -2,3 C 2,9 C
14.03.2013 15:00 3,0 C 66 % 1010,6 hPa 0,0 l/m 2,1 km/h (1 Bft) SW -2,6 C 2,7 C
14.03.2013 16:00 0,7 C 75 % 1011,0 hPa 0,0 l/m 3,1 km/h (1 Bft) NW -3,3 C 0,3 C
14.03.2013 17:00 -0,5 C 80 % 1011,3 hPa 0,0 l/m 1,1 km/h (1 Bft) NW -3,5 C -0,5 C
14.03.2013 18:00 -1,9 C 80 % 1012,0 hPa 0,0 l/m 0,3 km/h (0 Bft) W -4,8 C -1,9 C
14.03.2013 19:00 -2,7 C 82 % 1012,6 hPa 0,0 l/m 1,1 km/h (1 Bft) N-NW -5,3 C -2,7 C
14.03.2013 20:00 -2,7 C 84 % 1013,0 hPa 0,0 l/m 1,7 km/h (1 Bft) O-NO -5,1 C -2,7 C
14.03.2013 21:00 -3,1 C 82 % 1013,3 hPa 0,0 l/m 1,0 km/h (0 Bft) N-NO -5,7 C -3,1 C
14.03.2013 22:00 -3,7 C 85 % 1013,3 hPa 0,0 l/m 2,4 km/h (1 Bft) N-NO -5,9 C -4,2 C
14.03.2013 23:00 -4,0 C 86 % 1013,4 hPa 0,0 l/m 1,3 km/h (1 Bft) N-NO -6,0 C -4,1 C
15.03.2013 00:00 -4,2 C 85 % 1013,4 hPa 0,0 l/m 2,5 km/h (1 Bft) NO -6,3 C -4,4 C
15.03.2013 01:00 -4,9 C 86 % 1013,6 hPa 0,0 l/m 1,8 km/h (1 Bft) W -6,9 C -5,1 C
15.03.2013 02:00 -5,5 C 87 % 1013,7 hPa 0,0 l/m 1,7 km/h (1 Bft) N -7,3 C -5,7 C
15.03.2013 03:00 -5,1 C 88 % 1013,8 hPa 0,0 l/m 0,6 km/h (0 Bft) NW -6,8 C -5,1 C
15.03.2013 04:00 -4,9 C 88 % 1014,2 hPa 0,0 l/m 1,1 km/h (0 Bft) N-NO -6,5 C -4,9 C
15.03.2013 05:00 -5,0 C 88 % 1014,6 hPa 0,0 l/m 2,1 km/h (1 Bft) W -6,6 C -5,2 C
15.03.2013 06:00 -5,4 C 88 % 1014,9 hPa 0,0 l/m 1,8 km/h (1 Bft) W-NW -7,0 C -5,4 C
15.03.2013 07:00 -4,7 C 88 % 1015,3 hPa 0,0 l/m 2,0 km/h (1 Bft) W-NW -6,4 C -4,9 C
15.03.2013 08:00 -3,9 C 85 % 1015,8 hPa 0,0 l/m 2,5 km/h (1 Bft) W-NW -5,9 C -4,0 C
15.03.2013 09:00 -2,9 C 82 % 1016,3 hPa 0,0 l/m 4,3 km/h (1 Bft) W-NW -5,5 C -4,2 C
15.03.2013 10:00 -2,1 C 80 % 1016,8 hPa 0,0 l/m 3,3 km/h (1 Bft) NW -5,2 C -2,9 C
15.03.2013 11:00 -1,1 C 79 % 1017,1 hPa 0,0 l/m 4,0 km/h (1 Bft) NW -4,4 C -1,9 C
15.03.2013 12:00 0,4 C 76 % 1017,1 hPa 0,0 l/m 3,8 km/h (1 Bft) NW -3,3 C 0,1 C
15.03.2013 13:00 2,2 C 70 % 1016,8 hPa 0,0 l/m 4,2 km/h (1 Bft) W-NW -2,6 C 1,5 C
15.03.2013 14:00 4,0 C 63 % 1016,6 hPa 0,0 l/m 2,9 km/h (1 Bft) W-NW -2,5 C 3,6 C
15.03.2013 15:00 4,1 C 57 % 1016,7 hPa 0,0 l/m 5,4 km/h (1 Bft) NW -3,6 C 3,1 C
15.03.2013 16:00 2,2 C 60 % 1016,7 hPa 0,0 l/m 7,3 km/h (2 Bft) W -4,9 C 0,2 C
15.03.2013 17:00 0,9 C 62 % 1017,0 hPa 0,0 l/m 3,3 km/h (1 Bft) W-SW -5,5 C 0,3 C
15.03.2013 18:00 -1,1 C 66 % 1017,4 hPa 0,0 l/m 2,6 km/h (1 Bft) W-SW -6,7 C -1,2 C
15.03.2013 19:00 -2,6 C 69 % 1018,0 hPa 0,0 l/m 0,7 km/h (0 Bft) S-SO -7,5 C -2,6 C
15.03.2013 20:00 -4,1 C 72 % 1018,4 hPa 0,0 l/m 0,5 km/h (0 Bft) S -8,3 C -4,1 C
15.03.2013 21:00 -5,1 C 76 % 1018,6 hPa 0,0 l/m 2,0 km/h (1 Bft) S-SO -8,7 C -5,1 C
15.03.2013 22:00 -5,5 C 78 % 1018,6 hPa 0,0 l/m 2,2 km/h (1 Bft) S-SO -8,7 C -5,7 C
15.03.2013 23:00 -6,1 C 80 % 1018,7 hPa 0,0 l/m 1,9 km/h (1 Bft) S-SO -9,0 C -6,1 C
16.03.2013 00:00 -6,6 C 81 % 1018,7 hPa 0,0 l/m 0,8 km/h (0 Bft) SO -9,3 C -6,6 C
16.03.2013 01:00 -7,3 C 82 % 1018,9 hPa 0,0 l/m 1,1 km/h (1 Bft) S-SO -9,8 C -7,3 C
16.03.2013 02:00 -8,0 C 83 % 1018,7 hPa 0,0 l/m 0,7 km/h (0 Bft) SO -10,4 C -8,0 C
16.03.2013 03:00 -8,5 C 84 % 1018,6 hPa 0,0 l/m 0,9 km/h (0 Bft) SO -10,7 C -8,5 C
16.03.2013 04:00 -9,0 C 85 % 1018,5 hPa 0,0 l/m 1,7 km/h (1 Bft) SO -11,1 C -9,0 C
16.03.2013 05:00 -9,3 C 85 % 1018,6 hPa 0,0 l/m 2,7 km/h (1 Bft) SO -11,4 C -9,9 C
16.03.2013 06:00 -9,3 C 85 % 1018,8 hPa 0,0 l/m 2,9 km/h (1 Bft) SO -11,3 C -9,8 C
16.03.2013 07:00 -8,0 C 84 % 1019,0 hPa 0,0 l/m 2,7 km/h (1 Bft) O-SO -10,2 C -8,9 C
16.03.2013 08:00 -5,8 C 81 % 1018,9 hPa 0,0 l/m 6,5 km/h (2 Bft) O-SO -8,6 C -8,4 C
16.03.2013 09:00 -2,9 C 74 % 1018,9 hPa 0,0 l/m 5,4 km/h (1 Bft) SO -6,8 C -4,8 C
16.03.2013 10:00 0,9 C 59 % 1018,6 hPa 0,0 l/m 8,1 km/h (2 Bft) S-SO -6,2 C -1,5 C
16.03.2013 11:00 3,1 C 53 % 1018,2 hPa 0,0 l/m 8,5 km/h (2 Bft) SO -5,5 C 0,9 C
16.03.2013 12:00 3,4 C 53 % 1017,9 hPa 0,0 l/m 7,5 km/h (2 Bft) SO -5,2 C 2,0 C
16.03.2013 13:00 4,0 C 51 % 1017,5 hPa 0,0 l/m 12,7 km/h (3 Bft) SO -5,3 C 1,0 C
16.03.2013 14:00 4,3 C 48 % 1017,1 hPa 0,0 l/m 10,8 km/h (2 Bft) SO -5,7 C 1,8 C
16.03.2013 15:00 4,3 C 45 % 1016,7 hPa 0,0 l/m 13,3 km/h (3 Bft) SO -6,5 C 1,3 C
16.03.2013 16:00 3,7 C 44 % 1016,2 hPa 0,0 l/m 11,2 km/h (2 Bft) SO -7,4 C 1,1 C
16.03.2013 17:00 2,3 C 47 % 1015,9 hPa 0,0 l/m 10,7 km/h (2 Bft) SO -7,8 C -0,5 C
16.03.2013 18:00 1,0 C 49 % 1016,0 hPa 0,0 l/m 9,1 km/h (2 Bft) S-SO -8,5 C -1,7 C
16.03.2013 19:00 0,3 C 50 % 1016,0 hPa 0,5 l/m 7,2 km/h (2 Bft) SO -8,9 C -2,1 C
16.03.2013 20:00 -1,3 C 58 % 1015,6 hPa 0,0 l/m 8,4 km/h (2 Bft) SO -8,5 C -4,3 C
16.03.2013 21:00 -1,4 C 63 % 1015,1 hPa 0,0 l/m 10,5 km/h (2 Bft) SO -7,5 C -5,0 C
16.03.2013 22:00 -1,3 C 63 % 1014,9 hPa 0,0 l/m 7,7 km/h (2 Bft) SO -7,3 C -3,7 C
16.03.2013 23:00 -1,4 C 66 % 1014,8 hPa 0,0 l/m 7,5 km/h (2 Bft) SO -6,9 C -3,8 C
17.03.2013 00:00 -1,4 C 68 % 1014,7 hPa 0,0 l/m 10,1 km/h (2 Bft) SO -6,6 C -4,9 C
17.03.2013 01:00 -1,6 C 69 % 1014,6 hPa 0,0 l/m 13,2 km/h (3 Bft) SO -6,6 C -5,8 C
17.03.2013 02:00 -1,8 C 70 % 1013,8 hPa 0,0 l/m 14,7 km/h (3 Bft) SO -6,6 C -6,4 C
17.03.2013 03:00 -2,2 C 71 % 1013,4 hPa 0,0 l/m 12,3 km/h (3 Bft) SO -6,8 C -6,3 C
17.03.2013 04:00 -2,6 C 71 % 1012,8 hPa 0,0 l/m 10,3 km/h (2 Bft) S-SO -7,1 C -6,4 C
17.03.2013 05:00 -2,9 C 71 % 1012,1 hPa 0,0 l/m 10,3 km/h (2 Bft) SO -7,4 C -6,7 C
17.03.2013 06:00 -3,2 C 71 % 1012,0 hPa 0,0 l/m 12,0 km/h (2 Bft) SO -7,7 C -7,4 C
17.03.2013 07:00 -2,9 C 70 % 1011,8 hPa 0,0 l/m 12,4 km/h (3 Bft) SO -7,6 C -7,3 C
17.03.2013 08:00 -1,8 C 67 % 1011,6 hPa 0,0 l/m 15,8 km/h (3 Bft) SO -7,1 C -6,7 C
17.03.2013 09:00 -0,2 C 62 % 1011,3 hPa 0,0 l/m 15,3 km/h (3 Bft) SO -6,6 C -4,6 C
17.03.2013 10:00 1,2 C 56 % 1010,7 hPa 0,0 l/m 14,3 km/h (3 Bft) SO -6,5 C -2,7 C
17.03.2013 11:00 1,4 C 55 % 1010,3 hPa 0,0 l/m 15,3 km/h (3 Bft) SO -6,5 C -2,5 C
17.03.2013 12:00 2,0 C 53 % 1009,8 hPa 0,0 l/m 16,6 km/h (3 Bft) SO -6,5 C -2,0 C
17.03.2013 13:00 3,1 C 52 % 1009,0 hPa 0,0 l/m 17,8 km/h (3 Bft) SO -5,9 C -0,8 C
17.03.2013 14:00 3,2 C 52 % 1008,0 hPa 1,0 l/m 17,1 km/h (3 Bft) O -5,8 C -0,6 C
17.03.2013 15:00 2,6 C 51 % 1007,3 hPa 0,0 l/m 11,1 km/h (2 Bft) O-SO -6,5 C -0,4 C
17.03.2013 16:00 2,3 C 51 % 1007,1 hPa 0,0 l/m 12,3 km/h (3 Bft) O-SO -6,7 C -1,0 C
17.03.2013 17:00 2,0 C 55 % 1007,0 hPa 0,0 l/m 9,1 km/h (2 Bft) O-SO -6,0 C -0,6 C
17.03.2013 18:00 1,4 C 57 % 1006,8 hPa 0,0 l/m 11,8 km/h (2 Bft) O-SO -6,0 C -1,8 C
17.03.2013 19:00 1,0 C 59 % 1006,6 hPa 0,0 l/m 11,5 km/h (2 Bft) O-SO -6,0 C -2,4 C
17.03.2013 20:00 0,9 C 62 % 1006,4 hPa 0,0 l/m 13,7 km/h (3 Bft) O-SO -5,5 C -2,8 C
17.03.2013 21:00 0,7 C 64 % 1006,0 hPa 0,0 l/m 14,5 km/h (3 Bft) O-SO -5,3 C -3,3 C
17.03.2013 22:00 0,5 C 65 % 1005,2 hPa 0,0 l/m 17,6 km/h (3 Bft) O-SO -5,3 C -4,2 C
17.03.2013 23:00 0,1 C 67 % 1004,6 hPa 0,0 l/m 13,6 km/h (3 Bft) O-SO -5,3 C -3,9 C
Min-Datum _ 13.03.13 16.03.13 17.03.13 - 11.03.13 - 13.03.13 16.03.13
_ Min-Zeit 06:16 16:06 23:56 - 02:01 - 05:56 05:41
Minimum _ -9,9 C 43 % 1004,3 hPa - 0,0 km/h (0 Bft) - -12,3 C -12,8 C
Max-Datum _ 15.03.13 15.03.13 16.03.13 17.03.13 17.03.13 - 14.03.13 15.03.13
_ Max-Zeit 15:21 04:36 07:21 14:21 20:46 - 12:06 15:21
Maximum _ 4,8 C 89 % 1019,1 hPa 1,0 l/m 30,6 km/h
O-SO (5 Bft)
- -1,7 C 4,8 C
Durchschnitt _ -2,4 C 72 % 1010,8 hPa #2,6 l/m 5,0 km/h (1 Bft) O-NO -7,0 C -3,7 C
(c) by David Heller